createdAt,value
2023-01-20T00:01:40.199Z,10.10
2023-01-20T00:04:07.388Z,10.90
2023-01-20T00:06:34.791Z,11.60
2023-01-20T00:09:03.119Z,11.80
2023-01-20T00:11:30.513Z,12.20
2023-01-20T00:13:59.486Z,11.50
2023-01-20T00:16:26.858Z,12.40
2023-01-20T00:18:54.317Z,13.00
2023-01-20T00:21:21.654Z,13.30
2023-01-20T00:23:50.345Z,14.90
2023-01-20T00:26:19.594Z,16.20
2023-01-20T00:28:47.314Z,14.30
2023-01-20T00:31:28.656Z,13.80
2023-01-20T00:33:57.352Z,12.90
2023-01-20T00:36:25.008Z,14.20
2023-01-20T00:38:52.318Z,13.60
2023-01-20T00:41:19.683Z,11.40
2023-01-20T00:43:46.980Z,12.70
2023-01-20T00:46:14.235Z,13.40
2023-01-20T00:48:41.614Z,13.50
2023-01-20T00:51:09.270Z,12.80
2023-01-20T00:53:36.751Z,13.30
2023-01-20T00:56:04.332Z,13.50
2023-01-20T00:58:31.627Z,14.30
2023-01-20T01:00:59.189Z,12.80
2023-01-20T01:03:28.307Z,13.40
2023-01-20T01:05:55.612Z,12.80
2023-01-20T01:08:22.826Z,11.00
2023-01-20T01:10:50.034Z,11.00
2023-01-20T01:13:17.296Z,11.30
2023-01-20T01:15:50.633Z,11.50
2023-01-20T01:18:17.937Z,10.60
2023-01-20T01:20:45.355Z,10.60
2023-01-20T01:23:13.038Z,11.40
2023-01-20T01:25:40.247Z,10.40
2023-01-20T01:28:07.591Z,11.00
2023-01-20T01:30:34.802Z,11.40
2023-01-20T01:33:02.070Z,12.20
2023-01-20T01:35:29.312Z,11.70
2023-01-20T01:37:56.536Z,13.00
2023-01-20T01:40:24.659Z,13.90
2023-01-20T01:42:51.898Z,12.70
2023-01-20T01:45:22.071Z,13.20
2023-01-20T01:47:50.867Z,12.30
2023-01-20T01:50:47.845Z,11.60
2023-01-20T01:53:15.098Z,11.10
2023-01-20T01:55:45.396Z,13.00
2023-01-20T01:58:15.031Z,14.50
2023-01-20T02:00:43.402Z,14.30
2023-01-20T02:03:10.671Z,14.60
2023-01-20T02:05:37.957Z,15.10
2023-01-20T02:08:05.837Z,12.70
2023-01-20T02:10:33.096Z,11.60
2023-01-20T02:13:00.387Z,11.00
2023-01-20T02:15:38.267Z,11.40
2023-01-20T02:18:27.178Z,11.10
2023-01-20T02:21:01.390Z,10.60
2023-01-20T02:23:53.368Z,9.60
2023-01-20T02:26:46.284Z,10.40
2023-01-20T02:29:39.911Z,9.80
2023-01-20T02:34:56.312Z,9.20
2023-01-20T02:37:29.036Z,10.40
2023-01-20T02:40:26.497Z,9.50
2023-01-20T02:43:32.183Z,10.10
2023-01-20T02:46:12.415Z,9.20
2023-01-20T02:48:47.530Z,9.60
2023-01-20T02:51:54.989Z,9.50
2023-01-20T02:54:22.270Z,9.70
2023-01-20T02:56:49.490Z,10.10
2023-01-20T02:59:18.950Z,9.50
2023-01-20T03:01:51.159Z,9.20
2023-01-20T03:04:20.419Z,10.20
2023-01-20T03:06:53.116Z,10.10
2023-01-20T03:09:27.590Z,9.90
2023-01-20T03:12:01.119Z,9.80
2023-01-20T03:14:28.369Z,10.60
2023-01-20T03:16:55.659Z,9.60
2023-01-20T03:19:23.120Z,9.10
2023-01-20T03:21:50.500Z,9.30
2023-01-20T03:24:17.738Z,9.40
2023-01-20T03:26:45.045Z,9.20
2023-01-20T03:29:12.928Z,9.10
2023-01-20T03:31:43.447Z,9.30
2023-01-20T03:34:12.969Z,9.30
2023-01-20T03:36:40.901Z,10.20
2023-01-20T03:39:08.224Z,9.70
2023-01-20T03:41:47.862Z,10.20
2023-01-20T03:44:24.639Z,10.10
2023-01-20T03:47:08.889Z,8.90
2023-01-20T03:49:37.371Z,10.30
2023-01-20T03:52:09.560Z,9.50
2023-01-20T03:54:46.019Z,10.10
2023-01-20T03:57:16.162Z,10.40
2023-01-20T03:59:43.692Z,9.50
2023-01-20T04:02:11.123Z,9.50
2023-01-20T04:04:40.057Z,9.10
2023-01-20T04:07:10.042Z,9.90
2023-01-20T04:09:39.805Z,9.10
2023-01-20T04:12:07.377Z,10.90
2023-01-20T04:14:37.787Z,9.80
2023-01-20T04:17:05.145Z,10.10
2023-01-20T04:19:32.435Z,10.70
2023-01-20T04:22:11.971Z,10.20
2023-01-20T04:24:46.206Z,10.50
2023-01-20T04:27:13.504Z,10.00
2023-01-20T04:29:41.783Z,9.60
2023-01-20T04:32:10.347Z,9.10
2023-01-20T04:34:37.550Z,9.80
2023-01-20T04:37:04.777Z,10.20
2023-01-20T04:39:31.992Z,9.60
2023-01-20T04:41:59.362Z,9.40
2023-01-20T04:44:26.581Z,8.90
2023-01-20T04:46:58.423Z,9.90
2023-01-20T04:49:25.683Z,9.30
2023-01-20T04:51:52.873Z,9.60
2023-01-20T04:54:20.238Z,9.40
2023-01-20T04:56:50.593Z,10.70
2023-01-20T04:59:17.917Z,9.50
2023-01-20T05:01:45.212Z,9.20
2023-01-20T05:04:12.492Z,9.10
2023-01-20T05:06:42.947Z,9.70
2023-01-20T05:09:13.231Z,8.40
2023-01-20T05:11:40.614Z,9.30
2023-01-20T05:14:07.957Z,9.10
2023-01-20T05:16:35.226Z,8.60
2023-01-20T05:19:02.460Z,9.50
2023-01-20T05:21:29.884Z,9.40
2023-01-20T05:23:57.389Z,8.90
2023-01-20T05:26:25.026Z,9.60
2023-01-20T05:28:52.908Z,9.80
2023-01-20T05:31:20.245Z,10.30
2023-01-20T05:33:47.655Z,10.80
2023-01-20T05:36:14.889Z,9.50
2023-01-20T05:38:42.152Z,9.20
2023-01-20T05:41:10.106Z,13.50
2023-01-20T05:43:37.354Z,10.50
2023-01-20T05:46:05.126Z,12.30
2023-01-20T05:48:32.580Z,11.40
2023-01-20T05:50:59.856Z,10.40
2023-01-20T05:53:27.045Z,10.00
2023-01-20T05:56:04.714Z,9.70
2023-01-20T05:58:32.138Z,10.80
2023-01-20T06:01:11.120Z,11.00
2023-01-20T06:03:38.645Z,9.50
2023-01-20T06:06:08.041Z,9.60
2023-01-20T06:08:35.892Z,10.60
2023-01-20T06:11:03.252Z,10.50
2023-01-20T06:13:30.472Z,18.70
2023-01-20T06:15:57.803Z,11.20
2023-01-20T06:18:25.036Z,11.30
2023-01-20T06:20:52.285Z,11.70
2023-01-20T06:23:20.454Z,10.10
2023-01-20T06:25:47.637Z,9.30
2023-01-20T06:28:14.879Z,9.40
2023-01-20T06:30:43.481Z,10.10
2023-01-20T06:33:11.148Z,10.30
2023-01-20T06:35:38.506Z,11.50
2023-01-20T06:38:05.746Z,10.60
2023-01-20T06:40:33.046Z,11.00
2023-01-20T06:43:00.366Z,10.80
2023-01-20T06:45:28.975Z,10.40
2023-01-20T06:47:56.175Z,11.70
2023-01-20T06:50:23.516Z,11.10
2023-01-20T06:52:50.904Z,10.90
2023-01-20T06:55:18.248Z,11.70
2023-01-20T06:57:45.488Z,11.30
2023-01-20T07:00:13.835Z,10.70
2023-01-20T07:02:41.099Z,12.00
2023-01-20T07:05:09.895Z,10.90
2023-01-20T07:07:37.268Z,11.60
2023-01-20T07:10:04.824Z,10.20
2023-01-20T07:12:32.510Z,11.40
2023-01-20T07:14:59.772Z,10.80
2023-01-20T07:17:27.028Z,10.40
2023-01-20T07:19:54.279Z,12.20
2023-01-20T07:22:21.485Z,12.00
2023-01-20T07:24:49.106Z,11.70
2023-01-20T07:27:16.323Z,10.90
2023-01-20T07:29:43.805Z,12.70
2023-01-20T07:32:11.091Z,13.60
2023-01-20T07:34:38.340Z,11.80
2023-01-20T07:37:07.919Z,11.50
2023-01-20T07:39:36.688Z,10.90
2023-01-20T07:42:04.181Z,11.20
2023-01-20T07:44:32.689Z,11.60
2023-01-20T07:46:59.996Z,10.50
2023-01-20T07:49:27.632Z,10.60
2023-01-20T07:51:55.026Z,11.00
2023-01-20T07:54:22.393Z,12.00
2023-01-20T07:56:49.641Z,11.00
2023-01-20T07:59:16.938Z,12.10
2023-01-20T08:01:44.969Z,12.40
2023-01-20T08:04:14.113Z,11.50
2023-01-20T08:06:41.556Z,12.00
2023-01-20T08:09:12.514Z,12.60
2023-01-20T08:11:40.017Z,11.80
2023-01-20T08:14:07.569Z,11.10
2023-01-20T08:16:35.486Z,11.60
2023-01-20T08:19:02.766Z,11.90
2023-01-20T08:21:31.339Z,12.20
2023-01-20T08:23:59.666Z,11.20
2023-01-20T08:26:28.464Z,10.70
2023-01-20T08:28:56.966Z,12.70
2023-01-20T08:31:24.758Z,11.70
2023-01-20T08:33:53.544Z,12.90
2023-01-20T08:36:23.244Z,12.70
2023-01-20T08:38:50.497Z,12.80
2023-01-20T08:41:26.442Z,11.30
2023-01-20T09:02:27.788Z,13.00
2023-01-20T09:04:55.127Z,12.60
2023-01-20T09:07:22.342Z,13.00
2023-01-20T09:09:49.806Z,13.10
2023-01-20T09:12:17.306Z,13.00
2023-01-20T09:14:45.549Z,11.80
2023-01-20T09:17:15.622Z,12.60
2023-01-20T09:19:43.562Z,13.80
2023-01-20T09:22:11.772Z,12.00
2023-01-20T09:24:40.577Z,12.10
2023-01-20T09:27:08.008Z,13.00
2023-01-20T09:29:37.377Z,13.10
2023-01-20T09:32:04.886Z,13.10
2023-01-20T09:34:32.337Z,12.40
2023-01-20T09:37:20.114Z,10.30
2023-01-20T09:40:07.018Z,11.40
2023-01-20T09:43:19.198Z,12.90
2023-01-20T09:46:09.494Z,11.20
2023-01-20T09:49:46.846Z,11.40
2023-01-20T09:52:53.040Z,11.80
2023-01-20T09:55:31.627Z,10.80
2023-01-20T09:58:18.688Z,12.10
2023-01-20T10:00:52.330Z,13.90
2023-01-20T10:03:29.878Z,11.70
2023-01-20T10:05:57.340Z,14.00
2023-01-20T10:08:35.018Z,13.70
2023-01-20T10:11:11.180Z,12.90
2023-01-20T10:13:47.593Z,18.00
2023-01-20T10:16:29.960Z,13.10
2023-01-20T10:19:02.451Z,12.80
2023-01-20T10:43:22.285Z,13.80
2023-01-20T10:46:22.199Z,12.90
2023-01-20T10:48:55.197Z,12.10
2023-01-20T10:51:34.613Z,12.90
2023-01-20T10:54:23.162Z,12.00
2023-01-20T10:56:53.972Z,11.80
2023-01-20T10:59:45.205Z,12.80
2023-01-20T11:02:26.219Z,12.50
2023-01-20T11:04:58.957Z,12.60
2023-01-20T11:07:26.487Z,11.10
2023-01-20T11:09:53.777Z,10.50
2023-01-20T11:12:23.950Z,11.70
2023-01-20T11:14:51.226Z,11.10
2023-01-20T11:17:20.595Z,12.40
2023-01-20T11:19:57.608Z,10.90
2023-01-20T11:22:47.148Z,12.50
2023-01-20T11:25:26.778Z,12.80
2023-01-20T11:28:15.677Z,13.10
2023-01-20T11:30:43.013Z,12.70
2023-01-20T11:33:24.770Z,12.60
2023-01-20T11:36:05.261Z,13.10
2023-01-20T11:38:52.875Z,13.10
2023-01-20T11:41:29.819Z,12.20
2023-01-20T11:43:58.550Z,13.80
2023-01-20T11:46:32.579Z,12.50
2023-01-20T11:49:20.794Z,13.10
2023-01-20T11:51:57.779Z,13.20
2023-01-20T11:54:29.384Z,12.20
2023-01-20T11:57:02.151Z,12.60
2023-01-20T11:59:30.844Z,11.40
2023-01-20T12:01:58.351Z,13.40
2023-01-20T12:04:44.509Z,12.90
2023-01-20T12:07:18.889Z,12.50
2023-01-20T12:09:49.270Z,13.10
2023-01-20T12:12:48.433Z,12.30
2023-01-20T12:15:23.808Z,12.70
2023-01-20T12:18:17.425Z,11.90
2023-01-20T12:21:01.785Z,11.70
2023-01-20T12:23:46.892Z,12.00
2023-01-20T12:26:18.613Z,11.80
2023-01-20T12:28:56.905Z,12.50
2023-01-20T12:31:24.472Z,11.50
2023-01-20T12:34:04.043Z,11.70
2023-01-20T12:36:43.439Z,10.80
2023-01-20T12:39:33.171Z,11.40
2023-01-20T12:42:18.834Z,12.40
2023-01-20T12:44:52.339Z,11.00
2023-01-20T12:47:38.075Z,11.50
2023-01-20T12:50:11.246Z,11.30
2023-01-20T12:55:11.972Z,10.20
2023-01-20T12:57:48.336Z,11.60
2023-01-20T13:00:36.996Z,11.00
2023-01-20T13:03:17.036Z,11.30
2023-01-20T13:06:01.492Z,11.90
2023-01-20T13:08:51.581Z,11.10
2023-01-20T13:11:41.387Z,10.50
2023-01-20T13:14:19.200Z,11.20
2023-01-20T13:17:03.025Z,11.10
2023-01-20T13:19:37.646Z,10.60
2023-01-20T13:22:20.280Z,11.40
2023-01-20T13:24:58.188Z,11.70
2023-01-20T13:27:28.752Z,10.30
2023-01-20T13:29:57.433Z,10.40
2023-01-20T13:32:30.922Z,10.90
2023-01-20T13:34:58.511Z,10.90
2023-01-20T13:37:29.769Z,10.50
2023-01-20T13:40:03.586Z,10.40
2023-01-20T13:42:39.923Z,10.60
2023-01-20T13:45:11.095Z,11.30
2023-01-20T13:48:02.740Z,11.60
2023-01-20T13:50:39.322Z,10.20
2023-01-20T13:53:15.275Z,10.10
2023-01-20T13:55:45.289Z,10.90
2023-01-20T13:58:25.403Z,10.50
2023-01-20T14:01:03.138Z,10.20
2023-01-20T14:03:37.158Z,10.90
2023-01-20T14:06:14.267Z,11.40
2023-01-20T14:08:46.411Z,11.50
2023-01-20T14:11:24.074Z,9.50
2023-01-20T14:14:02.180Z,9.90
2023-01-20T14:16:35.377Z,10.80
2023-01-20T14:19:14.283Z,11.20
2023-01-20T14:21:41.910Z,12.10
2023-01-20T14:35:52.706Z,12.30
2023-01-20T14:38:20.027Z,11.90
2023-01-20T14:40:47.203Z,11.90
2023-01-20T14:43:22.783Z,13.50
2023-01-20T14:45:51.961Z,12.80
2023-01-20T14:48:33.386Z,12.90
2023-01-20T14:51:04.561Z,12.30
2023-01-20T14:53:33.387Z,11.50
2023-01-20T14:56:04.749Z,9.70
2023-01-20T14:58:32.022Z,11.80
2023-01-20T15:01:01.697Z,12.70
2023-01-20T15:03:29.394Z,12.30
2023-01-20T15:05:58.467Z,11.60
2023-01-20T15:08:34.996Z,13.80
2023-01-20T15:11:15.539Z,10.80
2023-01-20T15:14:15.821Z,12.90
2023-01-20T15:16:53.878Z,11.50
2023-01-20T15:19:34.398Z,12.70
2023-01-20T15:22:42.503Z,11.80
2023-01-20T15:25:19.916Z,13.00
2023-01-20T15:27:52.647Z,12.10
2023-01-20T15:30:24.077Z,11.50
2023-01-20T15:32:51.726Z,11.20
2023-01-20T15:35:21.232Z,10.90
2023-01-20T15:37:48.756Z,12.80
2023-01-20T15:40:18.007Z,14.10
2023-01-20T15:42:46.148Z,13.70
2023-01-20T15:45:16.843Z,14.80
2023-01-20T15:47:45.223Z,13.20
2023-01-20T15:50:17.865Z,12.80
2023-01-20T15:52:45.429Z,13.50
2023-01-20T15:55:16.600Z,15.00
2023-01-20T15:57:44.061Z,14.70
2023-01-20T16:00:16.730Z,13.60
2023-01-20T16:02:44.336Z,14.10
2023-01-20T16:05:22.357Z,12.90
2023-01-20T16:07:52.669Z,12.80
2023-01-20T16:10:20.083Z,13.90
2023-01-20T16:12:47.532Z,13.10
2023-01-20T16:15:16.441Z,13.70
2023-01-20T16:17:43.943Z,11.80
2023-01-20T16:20:20.003Z,12.70
2023-01-20T16:22:47.317Z,12.10
2023-01-20T16:25:14.558Z,11.80
2023-01-20T16:27:41.787Z,12.60
2023-01-20T16:30:16.698Z,11.30
2023-01-20T16:32:46.416Z,12.80
2023-01-20T16:35:17.603Z,12.10
2023-01-20T16:37:46.034Z,12.70
2023-01-20T16:40:15.123Z,11.80
2023-01-20T16:42:42.727Z,10.60
2023-01-20T16:45:29.524Z,12.10
2023-01-20T16:47:57.408Z,12.80
2023-01-20T16:50:28.059Z,11.20
2023-01-20T16:52:55.861Z,12.60
2023-01-20T16:55:24.230Z,13.00
2023-01-20T16:57:52.229Z,13.70
2023-01-20T17:00:20.718Z,12.20
2023-01-20T17:02:52.704Z,11.30
2023-01-20T17:05:22.928Z,12.20
2023-01-20T17:07:50.511Z,12.10
2023-01-20T17:10:18.257Z,10.00
2023-01-20T17:12:48.732Z,10.50
2023-01-20T17:15:16.199Z,11.60
2023-01-20T17:17:43.675Z,11.60
2023-01-20T17:20:11.008Z,11.50
2023-01-20T17:22:41.702Z,11.90
2023-01-20T17:25:09.333Z,11.30
2023-01-20T17:27:37.376Z,11.10
2023-01-20T17:30:05.782Z,10.80
2023-01-20T17:32:33.590Z,10.80
2023-01-20T17:35:00.800Z,9.50
2023-01-20T17:37:28.075Z,10.50
2023-01-20T17:39:55.256Z,11.60
2023-01-20T17:42:22.449Z,11.60
2023-01-20T17:44:49.623Z,10.50
2023-01-20T17:47:16.813Z,11.70
2023-01-20T17:49:44.026Z,10.10
2023-01-20T17:52:11.256Z,9.60
2023-01-20T17:54:38.583Z,10.70
2023-01-20T17:57:05.771Z,10.40
2023-01-20T17:59:32.959Z,10.50
2023-01-20T18:02:00.242Z,10.40
2023-01-20T18:04:28.520Z,10.30
2023-01-20T18:06:56.047Z,11.00
2023-01-20T18:09:23.223Z,10.30
2023-01-20T18:12:22.617Z,9.60
2023-01-20T18:14:49.849Z,10.80
2023-01-20T18:17:17.032Z,9.60
2023-01-20T18:19:44.196Z,10.20
2023-01-20T18:22:12.913Z,11.30
2023-01-20T18:24:40.358Z,11.50
2023-01-20T18:27:07.516Z,10.60
2023-01-20T18:29:36.382Z,10.00
2023-01-20T18:32:03.690Z,10.10
2023-01-20T18:34:30.926Z,9.40
2023-01-20T18:36:58.216Z,9.60
2023-01-20T18:39:25.917Z,8.90
2023-01-20T18:41:53.251Z,9.40
2023-01-20T18:44:20.830Z,9.90
2023-01-20T18:46:48.044Z,10.10
2023-01-20T18:49:16.299Z,9.50
2023-01-20T18:51:43.892Z,10.90
2023-01-20T18:54:13.195Z,8.70
2023-01-20T18:56:40.507Z,8.40
2023-01-20T18:59:07.805Z,8.10
2023-01-20T19:01:37.001Z,9.20
2023-01-20T19:04:04.689Z,8.80
2023-01-20T19:06:34.601Z,8.10
2023-01-20T19:09:01.949Z,9.60
2023-01-20T19:11:31.773Z,8.60
2023-01-20T19:13:59.131Z,8.70
2023-01-20T19:16:28.262Z,8.80
2023-01-20T19:19:00.275Z,8.80
2023-01-20T19:21:27.588Z,8.80
2023-01-20T19:23:56.629Z,8.80
2023-01-20T19:26:24.866Z,8.40
2023-01-20T19:28:57.538Z,8.40
2023-01-20T19:31:24.894Z,9.50
2023-01-20T19:33:52.368Z,8.40
2023-01-20T19:36:19.691Z,8.20
2023-01-20T19:38:47.198Z,9.30
2023-01-20T19:41:16.270Z,8.20
2023-01-20T19:43:43.913Z,8.00
2023-01-20T19:46:14.689Z,9.30
2023-01-20T19:48:42.106Z,9.10
2023-01-20T19:51:14.209Z,9.80
2023-01-20T19:53:41.846Z,8.80
2023-01-20T19:56:10.835Z,8.70
2023-01-20T19:58:39.452Z,8.80
2023-01-20T20:01:11.098Z,8.80
2023-01-20T20:03:38.348Z,8.80
2023-01-20T20:06:06.109Z,9.00
2023-01-20T20:08:33.718Z,8.20
2023-01-20T20:11:00.894Z,9.10
2023-01-20T20:13:28.129Z,8.50
2023-01-20T20:16:02.825Z,8.20
2023-01-20T20:18:30.203Z,9.00
2023-01-20T20:20:57.467Z,8.60
2023-01-20T20:23:26.137Z,9.80
2023-01-20T20:25:57.611Z,8.80
2023-01-20T20:28:25.918Z,9.20
2023-01-20T20:30:55.742Z,8.50
2023-01-20T20:33:24.409Z,8.40
2023-01-20T20:35:51.664Z,8.40
2023-01-20T20:38:19.235Z,8.40
2023-01-20T20:40:49.128Z,8.30
2023-01-20T20:43:17.089Z,8.90
2023-01-20T20:45:48.700Z,7.50
2023-01-20T20:48:20.785Z,7.50
2023-01-20T20:50:48.424Z,8.70
2023-01-20T20:53:18.391Z,8.50
2023-01-20T20:55:46.280Z,8.30
2023-01-20T20:58:13.488Z,8.10
2023-01-20T21:00:40.782Z,8.70
2023-01-20T21:03:08.741Z,7.90
2023-01-20T21:05:36.120Z,7.30
2023-01-20T21:08:06.305Z,8.10
2023-01-20T21:10:34.413Z,7.80
2023-01-20T21:13:01.865Z,8.70
2023-01-20T21:15:30.754Z,7.90
2023-01-20T21:17:58.618Z,7.90
2023-01-20T21:20:25.966Z,8.50
2023-01-20T21:22:53.148Z,8.70
2023-01-20T21:25:24.260Z,8.30
2023-01-20T21:27:51.594Z,8.80
2023-01-20T21:30:19.533Z,7.90
2023-01-20T21:32:47.259Z,7.20
2023-01-20T21:35:14.459Z,8.40
2023-01-20T21:37:41.668Z,8.30
2023-01-20T21:40:09.913Z,8.10
2023-01-20T21:42:37.142Z,8.00
2023-01-20T21:45:04.970Z,8.20
2023-01-20T21:47:32.297Z,7.80
2023-01-20T21:50:18.410Z,7.90
2023-01-20T21:52:45.838Z,7.20
2023-01-20T21:55:21.822Z,8.70
2023-01-20T21:57:51.136Z,7.60
2023-01-20T22:00:19.646Z,8.00
2023-01-20T22:02:47.247Z,7.50
2023-01-20T22:05:14.736Z,8.20
2023-01-20T22:07:41.970Z,8.10
2023-01-20T22:10:10.330Z,8.00
2023-01-20T22:12:39.211Z,8.60
2023-01-20T22:15:07.650Z,8.50
2023-01-20T22:17:34.893Z,7.80
2023-01-20T22:20:02.227Z,7.70
2023-01-20T22:22:29.738Z,7.60
2023-01-20T22:24:57.586Z,7.70
2023-01-20T22:27:25.405Z,7.40
2023-01-20T22:29:53.122Z,8.10
2023-01-20T22:32:20.303Z,7.30
2023-01-20T22:34:48.158Z,7.90
2023-01-20T22:37:15.907Z,8.00
2023-01-20T22:39:43.269Z,7.40
2023-01-20T22:42:11.166Z,7.60
2023-01-20T22:44:39.221Z,6.90
2023-01-20T22:47:10.587Z,8.00
2023-01-20T22:49:38.253Z,7.20
2023-01-20T22:52:05.695Z,7.00
2023-01-20T22:54:34.134Z,7.20
2023-01-20T22:57:01.471Z,7.30
2023-01-20T22:59:28.928Z,7.10
2023-01-20T23:01:56.202Z,6.70
2023-01-20T23:04:23.508Z,7.10
2023-01-20T23:06:50.899Z,7.70
2023-01-20T23:09:18.254Z,6.80
2023-01-20T23:11:46.034Z,7.50
2023-01-20T23:14:14.247Z,8.70
2023-01-20T23:16:42.438Z,6.90
2023-01-20T23:19:09.826Z,7.20
2023-01-20T23:21:37.441Z,7.50
2023-01-20T23:24:05.257Z,7.50
2023-01-20T23:26:34.499Z,6.70
2023-01-20T23:29:02.475Z,6.50
2023-01-20T23:31:33.604Z,7.30
2023-01-20T23:34:01.038Z,7.20
2023-01-20T23:36:28.274Z,6.90
2023-01-20T23:38:56.168Z,5.90
2023-01-20T23:41:23.531Z,6.00
2023-01-20T23:43:50.810Z,6.00
2023-01-20T23:46:18.108Z,5.70
2023-01-20T23:48:47.086Z,6.50
2023-01-20T23:51:14.590Z,6.00
2023-01-20T23:53:42.101Z,6.00
2023-01-20T23:56:18.704Z,6.20
2023-01-20T23:58:46.275Z,5.50
